Time;durP1;ratioP1;P1;durP2;ratioP2;P2;SDS_P1;SDS_P2;PMS_P1;PMS_P2;Temp;Humidity;BMP_temperature;BMP_pressure;BME280_temperature;BME280_humidity;BME280_pressure;Samples;Min_cycle;Max_cycle;Signal;HPM_P1;HPM_P2
2023/12/17 00:02:06;;;;;;;13.43;6.30;;;;;;;;;;5048346;28;20048;-65
2023/12/17 00:04:32;;;;;;;18.30;7.47;;;;;;;;;;5032507;28;20132;-65
2023/12/17 00:06:59;;;;;;;17.70;6.78;;;;;;;;;;5053857;28;20045;-65
2023/12/17 00:09:25;;;;;;;24.20;7.20;;;;;;;;;;5036961;28;20047;-65
2023/12/17 00:11:51;;;;;;;18.02;7.72;;;;;;;;;;5035126;28;20052;-65
2023/12/17 00:14:18;;;;;;;16.48;6.15;;;;;;;;;;5053886;28;20052;-65
2023/12/17 00:16:44;;;;;;;17.92;6.05;;;;;;;;;;5053278;28;20384;-65
2023/12/17 00:19:10;;;;;;;22.25;6.53;;;;;;;;;;5035825;28;20075;-65
2023/12/17 00:21:36;;;;;;;18.70;6.70;;;;;;;;;;5031565;28;20057;-64
2023/12/17 00:24:02;;;;;;;18.38;5.97;;;;;;;;;;5034454;28;20405;-65
2023/12/17 00:26:29;;;;;;;14.77;6.20;;;;;;;;;;5034439;28;20114;-64
2023/12/17 00:28:55;;;;;;;20.90;5.95;;;;;;;;;;5031148;28;20519;-65
2023/12/17 00:31:21;;;;;;;15.80;5.53;;;;;;;;;;5033482;28;20038;-64
2023/12/17 00:33:47;;;;;;;18.20;5.82;;;;;;;;;;5034323;28;20045;-65
2023/12/17 00:36:13;;;;;;;13.80;5.85;;;;;;;;;;5033466;28;20077;-65
2023/12/17 00:38:39;;;;;;;14.25;5.55;;;;;;;;;;5031861;28;20393;-65
2023/12/17 00:41:06;;;;;;;17.52;5.35;;;;;;;;;;5015541;28;20481;-64
2023/12/17 00:43:32;;;;;;;17.60;5.35;;;;;;;;;;5032287;28;20041;-65
2023/12/17 00:45:58;;;;;;;16.05;5.72;;;;;;;;;;5033837;28;20037;-65
2023/12/17 00:48:24;;;;;;;17.85;5.60;;;;;;;;;;5032639;28;20513;-65
2023/12/17 00:50:50;;;;;;;20.73;6.15;;;;;;;;;;5033707;28;20068;-64
2023/12/17 00:53:16;;;;;;;17.42;5.70;;;;;;;;;;5032899;28;20112;-64
2023/12/17 00:55:43;;;;;;;13.75;5.65;;;;;;;;;;5032245;28;20068;-64
2023/12/17 00:58:09;;;;;;;15.65;6.18;;;;;;;;;;5031533;28;20081;-64
2023/12/17 01:00:35;;;;;;;15.00;5.97;;;;;;;;;;5032257;28;20445;-65
2023/12/17 01:03:01;;;;;;;13.48;5.50;;;;;;;;;;5033244;28;20100;-65
2023/12/17 01:05:27;;;;;;;16.45;6.10;;;;;;;;;;5032258;28;20045;-64
2023/12/17 01:07:54;;;;;;;17.08;6.10;;;;;;;;;;5014529;28;20133;-64
2023/12/17 01:10:20;;;;;;;18.17;6.28;;;;;;;;;;5031567;28;20046;-64
2023/12/17 01:12:46;;;;;;;15.93;5.72;;;;;;;;;;5032458;28;20076;-65
2023/12/17 01:15:12;;;;;;;16.10;5.80;;;;;;;;;;5032318;28;20158;-65
2023/12/17 01:17:38;;;;;;;13.73;6.13;;;;;;;;;;5030615;28;20053;-65
2023/12/17 01:20:05;;;;;;;17.55;5.15;;;;;;;;;;5031395;28;20061;-65
2023/12/17 01:22:31;;;;;;;21.70;6.20;;;;;;;;;;5031306;28;20128;-64
2023/12/17 01:24:57;;;;;;;25.73;6.68;;;;;;;;;;5032614;28;20501;-65
2023/12/17 01:27:23;;;;;;;17.35;6.45;;;;;;;;;;5031244;28;20056;-65
2023/12/17 01:29:50;;;;;;;16.65;6.05;;;;;;;;;;5013519;28;20096;-64
2023/12/17 01:32:16;;;;;;;12.45;5.53;;;;;;;;;;5030926;28;20053;-64
2023/12/17 01:34:42;;;;;;;16.88;5.72;;;;;;;;;;5030697;28;20100;-65
2023/12/17 01:37:08;;;;;;;18.45;5.70;;;;;;;;;;5031755;28;20053;-65
2023/12/17 01:39:34;;;;;;;14.18;5.40;;;;;;;;;;5030125;28;20071;-65
2023/12/17 01:42:00;;;;;;;20.13;6.07;;;;;;;;;;5031657;28;20045;-65
2023/12/17 01:44:26;;;;;;;18.85;6.38;;;;;;;;;;5031411;28;20041;-65
2023/12/17 01:46:53;;;;;;;17.95;5.70;;;;;;;;;;5031033;28;20041;-65
2023/12/17 01:49:19;;;;;;;18.63;5.95;;;;;;;;;;5030669;28;20068;-65
2023/12/17 01:51:45;;;;;;;14.35;5.50;;;;;;;;;;5030116;28;20049;-65
2023/12/17 01:54:11;;;;;;;15.88;6.70;;;;;;;;;;5032758;28;20049;-65
2023/12/17 01:56:37;;;;;;;15.60;6.05;;;;;;;;;;5031318;28;20111;-65
2023/12/17 01:59:04;;;;;;;15.30;5.60;;;;;;;;;;5013461;28;20052;-65
2023/12/17 02:01:30;;;;;;;18.20;6.20;;;;;;;;;;5030036;28;20152;-65
2023/12/17 02:03:56;;;;;;;15.80;6.18;;;;;;;;;;5032104;28;20120;-65
2023/12/17 02:06:23;;;;;;;21.25;7.57;;;;;;;;;;5030564;28;20069;-64
2023/12/17 02:08:49;;;;;;;21.40;6.53;;;;;;;;;;5031718;28;20036;-65
2023/12/17 02:11:15;;;;;;;15.13;6.47;;;;;;;;;;5024385;28;20132;-65
2023/12/17 02:13:41;;;;;;;14.57;6.30;;;;;;;;;;5030422;28;20049;-65
2023/12/17 02:16:09;;;;;;;16.08;6.35;;;;;;;;;;5031983;28;20037;-65
2023/12/17 02:18:35;;;;;;;14.00;5.72;;;;;;;;;;5031322;28;20055;-65
2023/12/17 02:21:02;;;;;;;22.67;7.28;;;;;;;;;;5029658;28;20053;-65
2023/12/17 02:23:28;;;;;;;14.77;6.38;;;;;;;;;;5014537;28;20049;-64
2023/12/17 02:25:54;;;;;;;16.73;5.97;;;;;;;;;;5030994;28;20411;-64
2023/12/17 02:28:20;;;;;;;20.08;6.25;;;;;;;;;;5030152;28;20436;-64
2023/12/17 02:30:46;;;;;;;20.98;6.65;;;;;;;;;;5030063;28;20049;-65
2023/12/17 02:33:13;;;;;;;18.10;6.47;;;;;;;;;;5031130;28;20052;-65
2023/12/17 02:35:39;;;;;;;17.15;6.78;;;;;;;;;;5030305;28;20053;-64
2023/12/17 02:38:24;;;;;;;15.25;6.68;;;;;;;;;;5031897;28;20064;-64
2023/12/17 02:40:50;;;;;;;15.60;6.57;;;;;;;;;;5030483;28;20132;-64
2023/12/17 02:43:16;;;;;;;21.83;6.32;;;;;;;;;;5029684;28;20048;-65
2023/12/17 02:45:42;;;;;;;17.17;6.65;;;;;;;;;;5029245;28;20478;-65
2023/12/17 02:48:08;;;;;;;19.50;6.28;;;;;;;;;;5031651;28;20068;-64
2023/12/17 02:50:34;;;;;;;18.88;6.60;;;;;;;;;;5030502;28;20060;-65
2023/12/17 02:53:01;;;;;;;13.90;5.78;;;;;;;;;;5031205;28;20068;-65
2023/12/17 02:55:27;;;;;;;15.27;5.97;;;;;;;;;;5029144;28;20049;-65
2023/12/17 02:57:53;;;;;;;15.60;6.15;;;;;;;;;;5029458;28;20059;-64
2023/12/17 03:00:19;;;;;;;12.57;6.28;;;;;;;;;;5030576;28;20137;-64
2023/12/17 03:02:45;;;;;;;16.42;6.00;;;;;;;;;;5029563;28;20489;-65
2023/12/17 03:05:11;;;;;;;16.67;6.25;;;;;;;;;;5030830;28;20111;-65
2023/12/17 03:07:38;;;;;;;13.80;6.47;;;;;;;;;;5031578;28;20120;-64
2023/12/17 03:10:04;;;;;;;14.63;6.05;;;;;;;;;;5013393;28;20477;-64
2023/12/17 03:12:30;;;;;;;13.82;6.35;;;;;;;;;;5030692;28;20432;-65
2023/12/17 03:14:56;;;;;;;12.25;6.40;;;;;;;;;;5030165;28;20140;-64
2023/12/17 03:17:23;;;;;;;13.98;6.80;;;;;;;;;;5028867;28;20048;-64
2023/12/17 03:19:49;;;;;;;16.90;6.13;;;;;;;;;;5028404;28;20104;-65
2023/12/17 03:22:15;;;;;;;19.65;6.22;;;;;;;;;;5031113;28;20061;-64
2023/12/17 03:24:42;;;;;;;19.52;6.90;;;;;;;;;;5028664;28;20493;-65
2023/12/17 03:27:08;;;;;;;16.45;5.72;;;;;;;;;;5031795;28;20124;-65
2023/12/17 03:29:34;;;;;;;16.60;6.15;;;;;;;;;;5031470;28;20076;-65
2023/12/17 03:32:02;;;;;;;18.95;5.65;;;;;;;;;;5027757;28;20394;-65
2023/12/17 03:34:28;;;;;;;20.48;7.18;;;;;;;;;;5027359;28;20041;-65
2023/12/17 03:36:54;;;;;;;17.83;5.82;;;;;;;;;;5028917;28;20076;-64
2023/12/17 03:39:20;;;;;;;13.52;6.32;;;;;;;;;;5030442;28;20121;-65
2023/12/17 03:41:47;;;;;;;17.73;6.53;;;;;;;;;;5033611;28;20045;-65
2023/12/17 03:44:13;;;;;;;20.15;7.68;;;;;;;;;;5032864;28;20135;-64
2023/12/17 03:46:39;;;;;;;21.63;6.82;;;;;;;;;;5035481;28;20136;-65
2023/12/17 03:49:05;;;;;;;15.88;7.00;;;;;;;;;;5034836;28;20049;-65
2023/12/17 03:51:32;;;;;;;14.75;6.75;;;;;;;;;;5033897;28;20515;-64
2023/12/17 03:53:58;;;;;;;18.67;7.63;;;;;;;;;;5033953;28;20519;-64
2023/12/17 03:56:25;;;;;;;16.83;6.85;;;;;;;;;;5033653;28;20048;-64
2023/12/17 03:58:51;;;;;;;19.80;7.53;;;;;;;;;;5032423;28;20111;-64
2023/12/17 04:01:17;;;;;;;15.32;7.20;;;;;;;;;;5034922;28;20045;-64
2023/12/17 04:03:43;;;;;;;17.88;7.68;;;;;;;;;;5032470;28;20392;-65
2023/12/17 04:06:09;;;;;;;16.75;7.30;;;;;;;;;;5033080;28;20041;-65
2023/12/17 04:08:36;;;;;;;19.45;7.30;;;;;;;;;;5033484;28;20051;-64
2023/12/17 04:11:02;;;;;;;17.77;7.28;;;;;;;;;;5033174;28;20045;-64
2023/12/17 04:13:28;;;;;;;25.85;8.82;;;;;;;;;;5031489;28;20412;-65
2023/12/17 04:15:54;;;;;;;16.63;7.55;;;;;;;;;;5031897;28;20095;-65
2023/12/17 04:18:20;;;;;;;15.75;7.53;;;;;;;;;;5030049;28;20049;-65
2023/12/17 04:20:47;;;;;;;21.48;7.50;;;;;;;;;;5030043;28;20072;-65
2023/12/17 04:23:13;;;;;;;19.88;8.23;;;;;;;;;;5031442;28;20064;-65
2023/12/17 04:25:39;;;;;;;17.13;7.75;;;;;;;;;;5028932;28;20037;-65
2023/12/17 04:28:05;;;;;;;22.42;8.73;;;;;;;;;;5028063;28;20386;-65
2023/12/17 04:30:31;;;;;;;19.10;8.15;;;;;;;;;;5028858;28;20226;-64
2023/12/17 04:32:57;;;;;;;19.63;8.38;;;;;;;;;;5028221;28;20045;-65
2023/12/17 04:35:24;;;;;;;19.42;7.68;;;;;;;;;;5027533;28;20057;-64
2023/12/17 04:37:50;;;;;;;26.15;10.30;;;;;;;;;;5028042;28;20049;-64
2023/12/17 04:40:16;;;;;;;18.70;7.93;;;;;;;;;;5030341;28;20038;-64
2023/12/17 04:42:42;;;;;;;17.90;7.97;;;;;;;;;;5030960;28;20038;-65
2023/12/17 04:45:08;;;;;;;20.50;8.32;;;;;;;;;;5028416;28;20045;-65
2023/12/17 04:47:35;;;;;;;21.80;8.35;;;;;;;;;;5026567;28;20038;-64
2023/12/17 04:50:01;;;;;;;16.77;7.85;;;;;;;;;;5029546;28;20049;-65
2023/12/17 04:52:27;;;;;;;14.68;7.65;;;;;;;;;;5028646;28;20040;-65
2023/12/17 04:54:53;;;;;;;19.52;8.48;;;;;;;;;;5025468;28;20045;-64
2023/12/17 04:57:19;;;;;;;16.50;8.23;;;;;;;;;;5029055;28;20049;-64
2023/12/17 04:59:45;;;;;;;16.13;8.13;;;;;;;;;;5027010;28;20338;-65
2023/12/17 05:02:12;;;;;;;23.75;8.40;;;;;;;;;;5029421;28;20124;-64
2023/12/17 05:04:38;;;;;;;23.58;9.63;;;;;;;;;;5024863;28;20037;-64
2023/12/17 05:07:04;;;;;;;20.27;8.82;;;;;;;;;;5028143;28;20132;-64
2023/12/17 05:09:30;;;;;;;21.15;9.52;;;;;;;;;;5028003;28;20064;-64
2023/12/17 05:11:56;;;;;;;24.55;9.95;;;;;;;;;;5023522;28;20038;-65
2023/12/17 05:14:23;;;;;;;18.48;8.82;;;;;;;;;;5018973;28;20382;-64
2023/12/17 05:16:49;;;;;;;18.65;10.32;;;;;;;;;;5024066;28;20501;-65
2023/12/17 05:19:15;;;;;;;23.65;10.15;;;;;;;;;;5029397;28;20061;-65
2023/12/17 05:21:41;;;;;;;29.65;11.02;;;;;;;;;;5025550;28;20390;-65
2023/12/17 05:24:07;;;;;;;19.98;10.20;;;;;;;;;;5028121;28;20114;-64
2023/12/17 05:26:33;;;;;;;20.33;10.00;;;;;;;;;;5030279;28;20049;-65
2023/12/17 05:29:00;;;;;;;22.65;10.98;;;;;;;;;;5025068;28;20385;-64
2023/12/17 05:31:26;;;;;;;23.38;10.88;;;;;;;;;;5028143;28;20041;-65
2023/12/17 05:33:52;;;;;;;26.20;11.27;;;;;;;;;;5028086;28;20048;-65
2023/12/17 05:36:18;;;;;;;21.48;10.40;;;;;;;;;;5027246;28;20052;-65
2023/12/17 05:38:45;;;;;;;25.45;11.05;;;;;;;;;;5008016;28;20041;-65
2023/12/17 05:41:12;;;;;;;25.67;11.18;;;;;;;;;;5027435;28;20116;-65
2023/12/17 05:43:38;;;;;;;20.55;10.68;;;;;;;;;;5021733;28;20068;-64
2023/12/17 05:46:04;;;;;;;23.85;11.43;;;;;;;;;;5018955;28;20064;-64
2023/12/17 05:48:30;;;;;;;24.95;12.55;;;;;;;;;;5021717;28;20041;-64
2023/12/17 05:50:56;;;;;;;31.55;12.98;;;;;;;;;;5027953;28;20369;-64
2023/12/17 05:53:23;;;;;;;28.75;12.60;;;;;;;;;;5027996;28;20154;-64
2023/12/17 05:55:49;;;;;;;21.20;12.50;;;;;;;;;;5028518;28;20052;-64
2023/12/17 05:58:15;;;;;;;26.13;12.90;;;;;;;;;;5027486;28;20132;-64
2023/12/17 06:00:41;;;;;;;24.42;13.23;;;;;;;;;;5027407;28;20054;-64
2023/12/17 06:03:07;;;;;;;24.05;12.95;;;;;;;;;;5029246;28;20378;-64
2023/12/17 06:05:34;;;;;;;27.80;13.68;;;;;;;;;;5027701;28;20041;-64
2023/12/17 06:08:00;;;;;;;26.50;13.20;;;;;;;;;;5029038;28;20143;-65
2023/12/17 06:10:26;;;;;;;26.10;13.30;;;;;;;;;;5028055;28;20042;-65
2023/12/17 06:12:52;;;;;;;25.25;13.27;;;;;;;;;;5022690;28;20106;-65
2023/12/17 06:15:18;;;;;;;28.20;14.18;;;;;;;;;;5016755;28;20060;-64
2023/12/17 06:17:45;;;;;;;31.08;13.43;;;;;;;;;;5009312;28;20042;-64
2023/12/17 06:20:11;;;;;;;31.95;13.63;;;;;;;;;;5012668;28;20536;-64
2023/12/17 06:22:37;;;;;;;23.30;13.73;;;;;;;;;;5010261;28;20110;-64
2023/12/17 06:25:04;;;;;;;33.78;14.65;;;;;;;;;;5019062;28;20045;-64
2023/12/17 06:27:31;;;;;;;26.23;14.43;;;;;;;;;;5028331;28;20095;-64
2023/12/17 06:29:57;;;;;;;31.50;14.80;;;;;;;;;;5029018;28;20107;-65
2023/12/17 06:32:24;;;;;;;29.05;14.10;;;;;;;;;;5045007;28;20079;-64
2023/12/17 06:34:50;;;;;;;30.98;14.93;;;;;;;;;;5029506;28;20049;-65
2023/12/17 06:37:16;;;;;;;28.98;16.02;;;;;;;;;;5030186;28;20053;-65
2023/12/17 06:39:42;;;;;;;28.60;14.68;;;;;;;;;;5048411;28;20040;-65
2023/12/17 06:42:10;;;;;;;29.60;16.58;;;;;;;;;;5045775;28;20041;-65
2023/12/17 06:44:36;;;;;;;33.38;15.50;;;;;;;;;;5027382;28;20056;-64
2023/12/17 06:47:03;;;;;;;31.30;14.93;;;;;;;;;;5026274;28;20041;-65
2023/12/17 06:49:29;;;;;;;31.77;15.30;;;;;;;;;;5028729;28;20170;-64
2023/12/17 06:51:55;;;;;;;37.85;15.63;;;;;;;;;;5012024;28;20056;-64
2023/12/17 06:54:21;;;;;;;38.95;14.25;;;;;;;;;;5043433;28;20666;-64
2023/12/17 06:56:47;;;;;;;27.10;12.52;;;;;;;;;;5027853;28;20052;-64
2023/12/17 06:59:14;;;;;;;34.40;12.52;;;;;;;;;;5030097;28;20033;-65
2023/12/17 07:01:40;;;;;;;29.13;12.98;;;;;;;;;;5047311;28;20033;-64
2023/12/17 07:04:07;;;;;;;28.00;13.27;;;;;;;;;;5046000;28;20063;-65
2023/12/17 07:06:33;;;;;;;32.50;13.57;;;;;;;;;;5030564;28;20040;-64
2023/12/17 07:08:59;;;;;;;33.88;13.50;;;;;;;;;;5046673;28;20595;-68
2023/12/17 07:11:25;;;;;;;33.78;13.70;;;;;;;;;;5028951;28;20071;-65
2023/12/17 07:13:51;;;;;;;29.90;13.18;;;;;;;;;;5029782;28;20515;-65
2023/12/17 07:16:21;;;;;;;31.98;13.60;;;;;;;;;;5048230;28;20373;-65
2023/12/17 07:18:47;;;;;;;30.15;12.82;;;;;;;;;;5034119;28;20163;-65
2023/12/17 07:21:13;;;;;;;32.90;15.00;;;;;;;;;;5032784;28;20056;-65
2023/12/17 07:23:40;;;;;;;24.30;11.45;;;;;;;;;;5014844;28;20041;-65
2023/12/17 07:26:06;;;;;;;33.65;13.25;;;;;;;;;;5033220;28;20060;-64
2023/12/17 07:28:32;;;;;;;41.10;12.70;;;;;;;;;;5049956;28;20037;-64
2023/12/17 07:30:58;;;;;;;26.98;12.20;;;;;;;;;;5032628;28;20703;-65
2023/12/17 07:33:24;;;;;;;41.15;13.20;;;;;;;;;;5050817;28;20044;-65
2023/12/17 07:35:51;;;;;;;27.80;12.45;;;;;;;;;;5033850;28;20057;-65
2023/12/17 07:38:17;;;;;;;27.73;13.68;;;;;;;;;;5031347;28;20556;-65
2023/12/17 07:40:44;;;;;;;32.45;12.85;;;;;;;;;;5049757;28;20491;-65
2023/12/17 07:43:10;;;;;;;35.28;13.20;;;;;;;;;;5032300;28;20094;-65
2023/12/17 07:45:36;;;;;;;32.60;16.23;;;;;;;;;;5049013;28;21222;-64
2023/12/17 07:48:03;;;;;;;37.30;19.75;;;;;;;;;;5047781;28;20505;-65
2023/12/17 07:50:29;;;;;;;37.20;21.27;;;;;;;;;;5049839;28;20389;-64
2023/12/17 07:52:55;;;;;;;48.85;23.35;;;;;;;;;;5050141;28;20566;-64
2023/12/17 07:55:22;;;;;;;41.80;21.42;;;;;;;;;;5049655;28;20120;-64
2023/12/17 07:57:49;;;;;;;44.97;23.85;;;;;;;;;;5046754;28;20044;-64
2023/12/17 08:00:15;;;;;;;45.25;25.13;;;;;;;;;;5033307;28;20075;-65
2023/12/17 08:02:42;;;;;;;50.22;28.23;;;;;;;;;;5029091;28;20444;-65
2023/12/17 08:05:08;;;;;;;51.97;27.83;;;;;;;;;;5031447;28;20056;-65
2023/12/17 08:07:36;;;;;;;46.92;27.33;;;;;;;;;;5032537;28;20045;-65
2023/12/17 08:10:03;;;;;;;41.08;26.52;;;;;;;;;;5014640;28;20053;-65
2023/12/17 08:12:29;;;;;;;44.83;25.10;;;;;;;;;;5027582;28;20086;-64
2023/12/17 08:14:55;;;;;;;41.35;24.35;;;;;;;;;;5047911;28;20384;-64
2023/12/17 08:17:22;;;;;;;41.35;23.00;;;;;;;;;;5032330;28;20132;-64
2023/12/17 08:19:49;;;;;;;38.97;21.38;;;;;;;;;;5049595;28;20052;-64
2023/12/17 08:22:15;;;;;;;42.08;18.92;;;;;;;;;;5050275;28;20048;-64
2023/12/17 08:24:41;;;;;;;36.53;18.35;;;;;;;;;;5048294;28;20036;-64
2023/12/17 08:27:08;;;;;;;38.65;17.63;;;;;;;;;;5029739;28;20060;-64
2023/12/17 08:29:34;;;;;;;36.30;18.23;;;;;;;;;;5049656;28;20043;-64
2023/12/17 08:32:00;;;;;;;30.80;17.13;;;;;;;;;;5030152;28;20075;-69
2023/12/17 08:34:29;;;;;;;33.92;19.05;;;;;;;;;;5042098;28;20417;-69
2023/12/17 08:36:56;;;;;;;36.15;19.52;;;;;;;;;;5009636;28;20760;-69
2023/12/17 08:39:23;;;;;;;35.58;19.52;;;;;;;;;;5032497;28;20538;-71
2023/12/17 08:41:50;;;;;;;37.03;19.42;;;;;;;;;;5050408;28;20049;-64
2023/12/17 08:44:20;;;;;;;35.92;20.17;;;;;;;;;;5049761;28;20076;-64
2023/12/17 08:46:46;;;;;;;40.20;19.65;;;;;;;;;;5046462;28;20048;-64
2023/12/17 08:49:12;;;;;;;42.38;19.55;;;;;;;;;;5033643;28;20540;-64
2023/12/17 08:51:40;;;;;;;41.95;17.63;;;;;;;;;;5028384;28;20732;-64
2023/12/17 08:54:10;;;;;;;47.85;19.35;;;;;;;;;;5047419;28;20052;-64
2023/12/17 08:56:36;;;;;;;43.17;17.80;;;;;;;;;;5049873;28;20049;-64
2023/12/17 08:59:02;;;;;;;39.95;18.23;;;;;;;;;;5047404;28;20041;-64
2023/12/17 09:01:29;;;;;;;40.85;19.75;;;;;;;;;;5045796;28;20041;-64
2023/12/17 09:03:55;;;;;;;42.25;18.48;;;;;;;;;;5047197;28;20080;-66
2023/12/17 09:06:21;;;;;;;38.35;19.70;;;;;;;;;;5031144;28;20048;-64
2023/12/17 09:08:47;;;;;;;49.85;20.55;;;;;;;;;;5011430;28;20481;-64
2023/12/17 09:11:13;;;;;;;48.80;19.38;;;;;;;;;;5027662;28;20084;-64
2023/12/17 09:13:40;;;;;;;41.63;17.25;;;;;;;;;;5028789;28;20037;-64
2023/12/17 09:16:07;;;;;;;37.67;18.35;;;;;;;;;;5049722;28;20561;-64
2023/12/17 09:18:33;;;;;;;47.42;19.60;;;;;;;;;;5028348;28;20078;-64
2023/12/17 09:20:59;;;;;;;40.45;20.17;;;;;;;;;;5045971;28;20344;-64
2023/12/17 09:23:26;;;;;;;42.97;19.58;;;;;;;;;;5047529;28;20052;-64
2023/12/17 09:25:52;;;;;;;39.92;19.23;;;;;;;;;;5032889;28;20120;-64
2023/12/17 09:28:18;;;;;;;38.67;18.70;;;;;;;;;;5047613;28;20049;-65
2023/12/17 09:30:45;;;;;;;34.63;18.30;;;;;;;;;;5027958;28;20051;-64
2023/12/17 09:33:12;;;;;;;37.85;16.95;;;;;;;;;;5048679;28;20049;-65
2023/12/17 09:35:39;;;;;;;42.33;17.73;;;;;;;;;;5032179;28;20345;-65
2023/12/17 09:38:05;;;;;;;45.58;18.98;;;;;;;;;;5048790;28;20064;-64
2023/12/17 09:40:32;;;;;;;43.38;18.75;;;;;;;;;;5029761;28;20072;-64
2023/12/17 09:42:58;;;;;;;49.72;19.55;;;;;;;;;;5029673;28;20070;-64
2023/12/17 09:45:25;;;;;;;43.55;18.95;;;;;;;;;;5027931;28;20064;-64
2023/12/17 09:47:52;;;;;;;39.85;17.35;;;;;;;;;;5046669;28;20037;-64
2023/12/17 09:50:18;;;;;;;48.10;18.13;;;;;;;;;;5046361;28;20052;-64
2023/12/17 09:52:44;;;;;;;38.38;16.70;;;;;;;;;;5047206;28;20056;-64
2023/12/17 09:55:11;;;;;;;42.03;17.50;;;;;;;;;;5029495;28;20045;-64
2023/12/17 09:57:37;;;;;;;38.10;18.27;;;;;;;;;;5046002;28;20044;-64
2023/12/17 10:00:04;;;;;;;40.58;16.77;;;;;;;;;;5028733;28;20132;-64
2023/12/17 10:02:30;;;;;;;43.60;16.45;;;;;;;;;;5044498;28;20037;-64
2023/12/17 10:04:57;;;;;;;44.05;17.23;;;;;;;;;;5022224;28;20125;-65
2023/12/17 10:07:23;;;;;;;43.70;17.27;;;;;;;;;;5045379;28;20051;-64
2023/12/17 10:09:49;;;;;;;39.58;17.05;;;;;;;;;;5028949;28;20099;-64
2023/12/17 10:12:16;;;;;;;37.50;16.88;;;;;;;;;;5008284;28;20045;-64
2023/12/17 10:14:42;;;;;;;34.70;14.45;;;;;;;;;;5027258;28;20496;-65
2023/12/17 10:17:09;;;;;;;36.78;15.32;;;;;;;;;;5045105;28;20049;-64
2023/12/17 10:19:35;;;;;;;36.10;16.50;;;;;;;;;;5027974;28;20511;-65
2023/12/17 10:22:10;;;;;;;36.22;15.88;;;;;;;;;;5030448;28;20056;-64
2023/12/17 10:24:37;;;;;;;42.00;17.65;;;;;;;;;;5030007;28;20045;-65
2023/12/17 10:27:15;;;;;;;40.83;18.67;;;;;;;;;;5045871;28;20059;-64
2023/12/17 10:29:41;;;;;;;37.72;19.75;;;;;;;;;;5030628;28;20075;-64
2023/12/17 10:32:09;;;;;;;49.45;19.35;;;;;;;;;;5030210;28;20040;-65
2023/12/17 10:34:36;;;;;;;38.90;19.15;;;;;;;;;;5030807;28;20049;-65
2023/12/17 10:37:02;;;;;;;52.55;20.58;;;;;;;;;;5029750;28;20532;-64
2023/12/17 10:39:29;;;;;;;42.92;19.50;;;;;;;;;;5029537;28;20136;-64
2023/12/17 10:41:57;;;;;;;43.40;18.67;;;;;;;;;;5031231;28;20208;-64
2023/12/17 10:44:24;;;;;;;37.55;18.70;;;;;;;;;;5030010;28;20044;-64
2023/12/17 10:46:51;;;;;;;39.88;19.20;;;;;;;;;;5046711;28;20127;-64
2023/12/17 10:49:18;;;;;;;51.20;20.75;;;;;;;;;;5042356;28;20048;-64
2023/12/17 10:51:45;;;;;;;39.40;22.02;;;;;;;;;;5050245;28;20049;-64
2023/12/17 10:54:11;;;;;;;43.65;20.23;;;;;;;;;;5026727;28;20041;-64
2023/12/17 10:56:41;;;;;;;55.38;22.65;;;;;;;;;;5049849;28;20596;-64
2023/12/17 10:59:11;;;;;;;52.70;19.02;;;;;;;;;;5052420;28;20135;-64
2023/12/17 11:01:39;;;;;;;41.95;17.08;;;;;;;;;;5030521;28;20102;-64
2023/12/17 11:04:06;;;;;;;46.03;18.60;;;;;;;;;;5025869;28;20041;-64
2023/12/17 11:06:32;;;;;;;45.55;18.25;;;;;;;;;;5027461;28;20049;-64
2023/12/17 11:08:58;;;;;;;41.33;19.30;;;;;;;;;;5029892;28;20452;-64
2023/12/17 11:11:24;;;;;;;38.15;17.48;;;;;;;;;;5025737;28;20049;-64
2023/12/17 11:13:51;;;;;;;34.75;18.17;;;;;;;;;;5026470;28;20072;-64
2023/12/17 11:16:22;;;;;;;42.17;17.48;;;;;;;;;;5028542;28;20056;-64
2023/12/17 11:18:48;;;;;;;50.45;17.60;;;;;;;;;;5045994;28;20041;-65
2023/12/17 11:21:15;;;;;;;33.58;15.27;;;;;;;;;;5027049;28;20132;-64
2023/12/17 11:23:41;;;;;;;46.50;16.85;;;;;;;;;;5046654;28;20037;-64
2023/12/17 11:26:07;;;;;;;42.35;17.00;;;;;;;;;;5028514;28;20075;-64
2023/12/17 11:28:33;;;;;;;44.50;17.33;;;;;;;;;;5040006;28;20095;-64
2023/12/17 11:31:00;;;;;;;32.70;14.57;;;;;;;;;;5028514;28;20056;-64
2023/12/17 11:33:26;;;;;;;42.70;16.95;;;;;;;;;;5027374;28;20125;-65
2023/12/17 11:35:52;;;;;;;38.38;15.20;;;;;;;;;;5024021;28;20037;-64
2023/12/17 11:38:20;;;;;;;35.45;16.08;;;;;;;;;;5041105;28;20049;-64
2023/12/17 11:40:46;;;;;;;36.00;16.85;;;;;;;;;;5045495;28;20354;-66
2023/12/17 11:43:12;;;;;;;39.22;16.35;;;;;;;;;;5029907;28;20045;-64
2023/12/17 11:45:44;;;;;;;45.85;19.20;;;;;;;;;;5030148;28;20080;-65
2023/12/17 11:48:12;;;;;;;39.90;16.20;;;;;;;;;;5024033;28;20057;-64
2023/12/17 11:50:40;;;;;;;39.70;16.98;;;;;;;;;;5043624;28;20111;-64
2023/12/17 11:53:07;;;;;;;32.70;15.48;;;;;;;;;;5029535;28;20056;-65
2023/12/17 11:55:44;;;;;;;29.98;15.68;;;;;;;;;;5029291;28;20052;-65
2023/12/17 11:58:10;;;;;;;38.75;15.85;;;;;;;;;;5028139;28;20150;-65
2023/12/17 12:00:37;;;;;;;33.42;15.15;;;;;;;;;;5044390;28;20052;-64
2023/12/17 12:03:05;;;;;;;31.30;14.57;;;;;;;;;;5047129;28;20048;-65
2023/12/17 12:05:31;;;;;;;30.00;13.50;;;;;;;;;;5044737;28;20041;-65
2023/12/17 12:07:57;;;;;;;37.50;15.75;;;;;;;;;;5049824;28;20080;-64
2023/12/17 12:10:24;;;;;;;28.23;15.90;;;;;;;;;;5048116;28;20120;-65
2023/12/17 12:13:04;;;;;;;31.30;14.48;;;;;;;;;;5047119;28;20094;-64
2023/12/17 12:15:31;;;;;;;29.33;16.33;;;;;;;;;;5048313;28;20116;-64
2023/12/17 12:17:57;;;;;;;32.53;15.45;;;;;;;;;;5031668;28;20063;-64
2023/12/17 12:20:34;;;;;;;38.42;15.90;;;;;;;;;;5028337;28;20056;-64
2023/12/17 12:23:00;;;;;;;31.40;15.20;;;;;;;;;;5008783;28;20057;-64
2023/12/17 12:25:27;;;;;;;28.38;14.27;;;;;;;;;;5030337;28;20154;-64
2023/12/17 12:27:53;;;;;;;27.73;15.27;;;;;;;;;;5047682;28;20044;-65
2023/12/17 12:30:25;;;;;;;30.13;17.00;;;;;;;;;;5032309;28;20064;-64
2023/12/17 12:32:51;;;;;;;28.20;14.85;;;;;;;;;;5023473;28;20045;-65
2023/12/17 12:35:22;;;;;;;24.45;15.60;;;;;;;;;;5047318;28;20128;-64
2023/12/17 12:37:48;;;;;;;29.75;15.55;;;;;;;;;;5033263;28;20049;-64
2023/12/17 12:40:14;;;;;;;40.72;18.25;;;;;;;;;;5031878;28;20044;-64
2023/12/17 12:42:41;;;;;;;31.73;16.75;;;;;;;;;;5031335;28;20512;-64
2023/12/17 12:45:10;;;;;;;32.95;17.13;;;;;;;;;;5046681;28;20033;-65
2023/12/17 12:47:36;;;;;;;29.08;17.00;;;;;;;;;;5028288;28;20049;-65
2023/12/17 12:50:02;;;;;;;26.35;17.20;;;;;;;;;;5049824;28;20050;-64
2023/12/17 12:52:29;;;;;;;29.35;16.85;;;;;;;;;;5032139;28;20536;-64
2023/12/17 12:54:55;;;;;;;30.63;17.70;;;;;;;;;;5048591;28;20045;-64
2023/12/17 12:57:22;;;;;;;30.65;17.80;;;;;;;;;;5029766;28;20119;-64
2023/12/17 12:59:48;;;;;;;30.45;19.83;;;;;;;;;;5049706;28;20044;-64
2023/12/17 13:02:15;;;;;;;41.28;18.17;;;;;;;;;;5049339;28;20049;-64
2023/12/17 13:04:41;;;;;;;33.55;18.48;;;;;;;;;;5047902;28;20345;-64
2023/12/17 13:07:08;;;;;;;29.35;18.00;;;;;;;;;;5045736;28;20041;-64
2023/12/17 13:09:35;;;;;;;27.92;18.45;;;;;;;;;;5045646;28;20060;-64
2023/12/17 13:12:01;;;;;;;29.35;17.88;;;;;;;;;;5048468;28;20061;-64
2023/12/17 13:14:30;;;;;;;24.77;18.08;;;;;;;;;;5030548;28;20399;-64
2023/12/17 13:16:56;;;;;;;25.48;17.95;;;;;;;;;;5030760;28;20123;-64
2023/12/17 13:19:24;;;;;;;27.05;17.48;;;;;;;;;;5030996;28;20059;-64
2023/12/17 13:21:50;;;;;;;29.83;18.90;;;;;;;;;;5047299;28;20534;-64
2023/12/17 13:24:16;;;;;;;29.80;19.60;;;;;;;;;;5030716;28;20041;-64
2023/12/17 13:26:43;;;;;;;31.33;20.02;;;;;;;;;;5048879;28;20083;-65
2023/12/17 13:29:09;;;;;;;31.30;20.90;;;;;;;;;;5030214;28;20112;-64
2023/12/17 13:31:35;;;;;;;34.88;22.20;;;;;;;;;;5045756;28;20497;-64
2023/12/17 13:34:02;;;;;;;32.45;21.52;;;;;;;;;;5028049;28;20135;-64
2023/12/17 13:36:29;;;;;;;30.83;21.13;;;;;;;;;;5031725;28;20048;-65
2023/12/17 13:38:55;;;;;;;32.28;22.23;;;;;;;;;;5030836;28;20270;-64
2023/12/17 13:41:21;;;;;;;37.17;22.27;;;;;;;;;;5049567;28;20467;-65
2023/12/17 13:43:48;;;;;;;31.00;22.00;;;;;;;;;;5028574;28;20041;-64
2023/12/17 13:46:15;;;;;;;30.95;21.88;;;;;;;;;;5032246;28;20092;-65
2023/12/17 13:48:41;;;;;;;36.92;22.10;;;;;;;;;;5027968;28;20490;-64
2023/12/17 13:51:07;;;;;;;32.20;21.80;;;;;;;;;;5030497;28;20064;-64
2023/12/17 13:53:34;;;;;;;35.83;22.23;;;;;;;;;;5031282;28;20052;-64
2023/12/17 13:56:00;;;;;;;38.50;22.02;;;;;;;;;;5032707;28;20118;-64
2023/12/17 13:58:26;;;;;;;36.92;22.83;;;;;;;;;;5030599;28;21830;-64
2023/12/17 14:00:53;;;;;;;36.75;20.65;;;;;;;;;;5031931;28;20114;-64
2023/12/17 14:03:20;;;;;;;41.67;24.60;;;;;;;;;;5030449;28;20461;-64
2023/12/17 14:05:47;;;;;;;35.25;21.60;;;;;;;;;;5049317;28;20041;-64
2023/12/17 14:08:13;;;;;;;38.30;22.17;;;;;;;;;;5031041;28;20045;-65
2023/12/17 14:10:39;;;;;;;36.80;22.60;;;;;;;;;;5025225;28;20036;-64
2023/12/17 14:13:07;;;;;;;37.05;20.38;;;;;;;;;;5046000;28;20051;-64
2023/12/17 14:15:33;;;;;;;33.28;20.77;;;;;;;;;;5031488;28;20065;-66
2023/12/17 14:17:59;;;;;;;36.53;22.27;;;;;;;;;;5030521;28;20056;-64